createdAt,value
2018-07-12T00:01:56.047Z,100212.44
2018-07-12T00:04:24.078Z,100203.25
2018-07-12T00:06:51.317Z,100204.03
2018-07-12T00:09:18.423Z,100206.91
2018-07-12T00:11:45.642Z,100205.83
2018-07-12T00:14:12.731Z,100199.94
2018-07-12T00:16:39.859Z,100197.84
2018-07-12T00:19:07.521Z,100199.67
2018-07-12T00:21:35.441Z,100203.59
2018-07-12T00:24:02.523Z,100192.27
2018-07-12T00:26:29.934Z,100193.97
2018-07-12T00:28:57.224Z,100195.59
2018-07-12T00:31:24.712Z,100199.77
2018-07-12T00:33:51.958Z,100194.77
2018-07-12T00:36:18.969Z,100191.27
2018-07-12T00:38:45.996Z,100198.97
2018-07-12T00:41:13.091Z,100201.09
2018-07-12T00:43:40.467Z,100196.91
2018-07-12T00:46:07.577Z,100194.08
2018-07-12T00:48:34.660Z,100186.58
2018-07-12T00:51:01.842Z,100183.94
2018-07-12T00:53:28.948Z,100190.48
2018-07-12T00:55:56.012Z,100190.20
2018-07-12T00:58:24.128Z,100189.87
2018-07-12T01:00:51.213Z,100190.51
2018-07-12T01:03:18.307Z,100182.98
2018-07-12T01:05:45.407Z,100184.97
2018-07-12T01:08:12.547Z,100180.81
2018-07-12T01:10:39.863Z,100180.81
2018-07-12T01:13:06.958Z,100184.86
2018-07-12T01:15:34.048Z,100186.48
2018-07-12T01:18:01.140Z,100180.92
2018-07-12T01:20:28.285Z,100188.59
2018-07-12T01:22:55.516Z,100192.66
2018-07-12T01:25:22.710Z,100194.41
2018-07-12T01:27:49.796Z,100195.22
2018-07-12T01:30:16.928Z,100196.39
2018-07-12T01:32:44.713Z,100201.19
2018-07-12T01:35:11.822Z,100199.77
2018-07-12T01:37:39.487Z,100201.94
2018-07-12T01:40:06.579Z,100202.63
2018-07-12T01:42:33.763Z,100208.08
2018-07-12T01:45:00.860Z,100206.51
2018-07-12T01:47:30.150Z,100208.02
2018-07-12T01:49:57.361Z,100200.91
2018-07-12T01:52:24.580Z,100201.66
2018-07-12T01:54:51.712Z,100201.22
2018-07-12T01:57:18.901Z,100200.48
2018-07-12T01:59:46.064Z,100202.67
2018-07-12T02:02:13.337Z,100209.11
2018-07-12T02:04:40.497Z,100208.12
2018-07-12T02:07:07.623Z,100210.58
2018-07-12T02:09:34.778Z,100207.19
2018-07-12T02:12:01.926Z,100220.31
2018-07-12T02:14:29.071Z,100215.64
2018-07-12T02:16:56.493Z,100215.50
2018-07-12T02:19:24.522Z,100212.24
2018-07-12T02:21:51.800Z,100208.00
2018-07-12T02:24:18.893Z,100211.95
2018-07-12T02:26:46.667Z,100210.16
2018-07-12T02:29:13.820Z,100209.64
2018-07-12T02:31:40.977Z,100208.09
2018-07-12T02:34:08.068Z,100204.42
2018-07-12T02:36:35.259Z,100205.50
2018-07-12T02:39:02.334Z,100210.56
2018-07-12T02:41:29.433Z,100206.72
2018-07-12T02:43:56.546Z,100212.65
2018-07-12T02:46:23.762Z,100208.36
2018-07-12T02:48:51.883Z,100212.91
2018-07-12T02:51:19.006Z,100220.86
2018-07-12T02:53:46.079Z,100218.69
2018-07-12T02:56:13.190Z,100217.87
2018-07-12T02:58:40.607Z,100210.03
2018-07-12T03:01:07.731Z,100210.39
2018-07-12T03:03:34.918Z,100215.17
2018-07-12T03:06:02.040Z,100214.16
2018-07-12T03:08:29.147Z,100208.95
2018-07-12T03:10:56.249Z,100219.39
2018-07-12T03:13:23.448Z,100221.77
2018-07-12T03:15:51.442Z,100222.73
2018-07-12T03:18:18.535Z,100227.44
2018-07-12T03:20:45.640Z,100222.47
2018-07-12T03:23:12.740Z,100232.25
2018-07-12T03:25:39.860Z,100228.81
2018-07-12T03:28:07.183Z,100226.95
2018-07-12T03:30:34.741Z,100228.70
2018-07-12T03:33:01.875Z,100225.34
2018-07-12T03:35:28.959Z,100230.83
2018-07-12T03:37:56.067Z,100236.30
2018-07-12T03:40:23.215Z,100239.98
2018-07-12T03:42:50.329Z,100236.69
2018-07-12T03:45:17.539Z,100238.75
2018-07-12T03:47:44.786Z,100243.86
2018-07-12T03:50:11.867Z,100251.12
2018-07-12T03:52:38.984Z,100254.14
2018-07-12T03:55:06.105Z,100255.89
2018-07-12T03:57:33.226Z,100258.97
2018-07-12T04:00:00.312Z,100261.52
2018-07-12T04:02:27.403Z,100259.36
2018-07-12T04:04:55.676Z,100261.05
2018-07-12T04:07:22.779Z,100263.11
2018-07-12T04:09:50.155Z,100261.33
2018-07-12T04:12:17.252Z,100260.94
2018-07-12T04:14:44.330Z,100250.95
2018-07-12T04:17:15.584Z,100250.48
2018-07-12T04:19:42.660Z,100244.88
2018-07-12T04:22:09.744Z,100248.20
2018-07-12T04:24:36.868Z,100254.58
2018-07-12T04:27:03.994Z,100249.63
2018-07-12T04:29:31.164Z,100251.41
2018-07-12T04:31:58.287Z,100252.78
2018-07-12T04:34:25.419Z,100244.80
2018-07-12T04:36:52.465Z,100243.47
2018-07-12T04:39:19.579Z,100241.53
2018-07-12T04:41:46.639Z,100243.71
2018-07-12T04:44:13.754Z,100249.48
2018-07-12T04:46:40.883Z,100248.28
2018-07-12T04:49:07.992Z,100249.81
2018-07-12T04:51:35.072Z,100251.60
2018-07-12T04:54:02.159Z,100243.48
2018-07-12T04:56:30.120Z,100246.70
2018-07-12T04:59:05.231Z,100249.45
2018-07-12T05:01:32.672Z,100254.17
2018-07-12T05:04:00.684Z,100256.39
2018-07-12T05:06:27.818Z,100254.53
2018-07-12T05:08:55.550Z,100253.31
2018-07-12T05:11:23.434Z,100251.02
2018-07-12T05:13:50.702Z,100255.10
2018-07-12T05:16:17.893Z,100257.67
2018-07-12T05:18:44.882Z,100256.85
2018-07-12T05:21:11.987Z,100258.53
2018-07-12T05:23:39.051Z,100260.79
2018-07-12T05:26:06.151Z,100261.86
2018-07-12T05:28:33.233Z,100264.28
2018-07-12T05:31:00.427Z,100265.97
2018-07-12T05:33:27.492Z,100268.91
2018-07-12T05:35:55.652Z,100270.80
2018-07-12T05:38:23.894Z,100275.09
2018-07-12T05:40:51.998Z,100275.09
2018-07-12T05:43:20.210Z,100279.36
2018-07-12T05:45:48.360Z,100276.61
2018-07-12T05:48:16.516Z,100282.16
2018-07-12T05:50:47.061Z,100278.07
2018-07-12T05:53:16.013Z,100287.41
2018-07-12T05:55:44.110Z,100290.29
2018-07-12T05:58:12.234Z,100288.17
2018-07-12T06:00:40.606Z,100288.22
2018-07-12T06:03:08.933Z,100289.07
2018-07-12T06:05:37.127Z,100294.78
2018-07-12T06:08:05.262Z,100295.77
2018-07-12T06:10:33.871Z,100296.71
2018-07-12T06:13:01.986Z,100304.56
2018-07-12T06:15:30.126Z,100305.70
2018-07-12T06:17:58.253Z,100310.30
2018-07-12T06:20:27.073Z,100317.08
2018-07-12T06:22:55.514Z,100316.17
2018-07-12T06:25:23.729Z,100323.05
2018-07-12T06:27:51.885Z,100325.59
2018-07-12T06:30:19.954Z,100332.19
2018-07-12T06:32:48.026Z,100327.10
2018-07-12T06:35:16.183Z,100328.63
2018-07-12T06:37:44.293Z,100329.00
2018-07-12T06:40:12.472Z,100326.31
2018-07-12T06:42:40.856Z,100326.31
2018-07-12T06:45:08.874Z,100333.13
2018-07-12T06:47:36.954Z,100331.98
2018-07-12T06:50:05.119Z,100338.97
2018-07-12T06:52:33.230Z,100336.31
2018-07-12T06:55:01.408Z,100341.44
2018-07-12T06:57:29.542Z,100337.79
2018-07-12T06:59:57.778Z,100337.70
2018-07-12T07:02:25.860Z,100333.59
2018-07-12T07:04:53.934Z,100339.97
2018-07-12T07:07:22.022Z,100340.96
2018-07-12T07:09:50.152Z,100339.26
2018-07-12T07:15:08.679Z,100340.17
2018-07-12T07:17:36.905Z,100340.27
2018-07-12T07:20:05.061Z,100343.77
2018-07-12T07:22:33.191Z,100345.47
2018-07-12T07:25:01.371Z,100354.84
2018-07-12T07:27:30.909Z,100354.53
2018-07-12T07:29:59.124Z,100361.80
2018-07-12T07:32:27.671Z,100358.09
2018-07-12T07:34:55.830Z,100365.45
2018-07-12T07:37:24.077Z,100357.32
2018-07-12T07:39:52.270Z,100358.90
2018-07-12T07:42:20.599Z,100356.09
2018-07-12T07:44:48.698Z,100358.25
2018-07-12T07:47:16.844Z,100356.92
2018-07-12T07:49:45.104Z,100362.55
2018-07-12T07:52:13.564Z,100352.71
2018-07-12T07:54:41.700Z,100363.28
2018-07-12T07:57:10.125Z,100366.46
2018-07-12T07:59:38.188Z,100367.40
2018-07-12T08:02:06.313Z,100367.86
2018-07-12T08:04:34.422Z,100370.84
2018-07-12T08:07:02.700Z,100365.78
2018-07-12T08:09:30.932Z,100368.87
2018-07-12T08:11:59.054Z,100373.77
2018-07-12T08:14:27.843Z,100374.08
2018-07-12T08:16:56.210Z,100377.81
2018-07-12T08:19:24.364Z,100379.59
2018-07-12T08:22:03.431Z,100377.98
2018-07-12T08:24:31.672Z,100377.26
2018-07-12T08:27:00.040Z,100382.95
2018-07-12T08:29:28.195Z,100376.36
2018-07-12T08:31:56.312Z,100375.63
2018-07-12T08:34:24.483Z,100380.36
2018-07-12T08:36:52.781Z,100380.56
2018-07-12T08:39:20.918Z,100378.33
2018-07-12T08:41:49.167Z,100374.16
2018-07-12T08:44:17.530Z,100374.59
2018-07-12T08:46:45.922Z,100379.08
2018-07-12T08:49:14.066Z,100374.78
2018-07-12T08:51:42.385Z,100371.55
2018-07-12T08:54:10.685Z,100375.77
2018-07-12T08:56:39.023Z,100373.27
2018-07-12T08:59:07.811Z,100368.66
2018-07-12T09:01:35.973Z,100368.38
2018-07-12T09:04:04.258Z,100370.91
2018-07-12T09:06:32.599Z,100369.66
2018-07-12T09:09:00.722Z,100367.14
2018-07-12T09:11:28.963Z,100367.19
2018-07-12T09:13:58.198Z,100365.87
2018-07-12T09:16:26.459Z,100363.34
2018-07-12T09:18:57.012Z,100367.66
2018-07-12T09:21:25.343Z,100362.91
2018-07-12T09:23:53.539Z,100360.80
2018-07-12T09:26:21.743Z,100361.23
2018-07-12T09:28:51.956Z,100366.00
2018-07-12T09:31:20.299Z,100363.38
2018-07-12T09:33:48.746Z,100359.80
2018-07-12T09:36:17.150Z,100364.26
2018-07-12T09:38:47.517Z,100363.38
2018-07-12T09:41:16.033Z,100366.00
2018-07-12T09:43:45.091Z,100361.89
2018-07-12T09:46:13.233Z,100366.39
2018-07-12T09:48:42.691Z,100369.44
2018-07-12T09:51:11.642Z,100367.27
2018-07-12T09:53:40.651Z,100366.02
2018-07-12T09:56:08.868Z,100364.25
2018-07-12T09:58:38.203Z,100366.86
2018-07-12T10:01:13.889Z,100369.03
2018-07-12T10:03:48.303Z,100370.77
2018-07-12T10:06:21.897Z,100369.00
2018-07-12T10:08:55.948Z,100378.54
2018-07-12T10:11:29.342Z,100374.64
2018-07-12T10:14:02.874Z,100381.56
2018-07-12T10:16:36.181Z,100372.48
2018-07-12T10:19:04.315Z,100371.64
2018-07-12T10:21:32.563Z,100365.97
2018-07-12T10:24:00.699Z,100373.78
2018-07-12T10:26:29.912Z,100375.52
2018-07-12T10:28:59.424Z,100376.37
2018-07-12T10:31:27.568Z,100384.20
2018-07-12T10:33:55.692Z,100377.16
2018-07-12T10:36:23.864Z,100375.42
2018-07-12T10:38:52.143Z,100374.83
2018-07-12T10:41:20.379Z,100371.94
2018-07-12T10:43:48.712Z,100378.53
2018-07-12T10:46:17.002Z,100376.34
2018-07-12T10:48:45.254Z,100365.50
2018-07-12T10:51:13.380Z,100368.14
2018-07-12T10:53:41.520Z,100362.54
2018-07-12T10:56:09.682Z,100368.58
2018-07-12T10:58:37.797Z,100362.95
2018-07-12T11:01:06.174Z,100358.59
2018-07-12T11:03:34.291Z,100362.90
2018-07-12T11:06:02.369Z,100367.28
2018-07-12T11:08:30.599Z,100362.08
2018-07-12T11:10:58.827Z,100359.42
2018-07-12T11:13:38.178Z,100362.53
2018-07-12T11:16:06.269Z,100371.19
2018-07-12T11:18:34.388Z,100372.94
2018-07-12T11:21:02.805Z,100368.63
2018-07-12T11:23:31.592Z,100365.85
2018-07-12T11:25:59.932Z,100362.27
2018-07-12T11:28:28.034Z,100366.91
2018-07-12T11:30:56.182Z,100368.91
2018-07-12T11:33:42.203Z,100358.65
2018-07-12T11:36:10.580Z,100362.35
2018-07-12T11:38:39.754Z,100361.33
2018-07-12T11:41:08.469Z,100360.56
2018-07-12T11:43:36.640Z,100360.56
2018-07-12T11:46:06.964Z,100363.92
2018-07-12T11:48:36.350Z,100368.41
2018-07-12T11:51:04.866Z,100367.15
2018-07-12T11:53:33.011Z,100364.52
2018-07-12T11:56:01.160Z,100363.11
2018-07-12T11:58:29.266Z,100367.77
2018-07-12T12:00:58.278Z,100371.01
2018-07-12T12:03:26.889Z,100370.06
2018-07-12T12:05:55.084Z,100367.76
2018-07-12T12:08:23.511Z,100352.58
2018-07-12T12:10:51.831Z,100352.60
2018-07-12T12:13:20.159Z,100356.39
2018-07-12T12:15:48.218Z,100351.38
2018-07-12T12:18:17.323Z,100337.53
2018-07-12T12:20:45.567Z,100332.08
2018-07-12T12:23:15.646Z,100328.95
2018-07-12T12:25:43.816Z,100334.77
2018-07-12T12:28:18.603Z,100330.06
2018-07-12T12:30:47.015Z,100337.86
2018-07-12T12:33:15.228Z,100332.03
2018-07-12T12:35:43.740Z,100334.80
2018-07-12T12:38:13.138Z,100339.16
2018-07-12T12:40:42.173Z,100339.75
2018-07-12T12:43:10.452Z,100341.60
2018-07-12T12:45:38.769Z,100339.09
2018-07-12T12:48:06.884Z,100339.14
2018-07-12T12:50:37.241Z,100342.70
2018-07-12T12:53:05.407Z,100345.27
2018-07-12T12:55:33.720Z,100345.48
2018-07-12T12:58:01.900Z,100343.97
2018-07-12T13:00:30.008Z,100344.33
2018-07-12T13:02:58.133Z,100338.78
2018-07-12T13:05:26.448Z,100335.56
2018-07-12T13:07:54.604Z,100326.59
2018-07-12T13:10:23.081Z,100325.70
2018-07-12T13:12:51.451Z,100320.92
2018-07-12T13:15:19.933Z,100323.25
2018-07-12T13:17:48.394Z,100320.16
2018-07-12T13:20:16.579Z,100316.94
2018-07-12T13:22:44.862Z,100328.63
2018-07-12T13:25:13.125Z,100326.03
2018-07-12T13:27:41.351Z,100329.37
2018-07-12T13:30:10.359Z,100329.98
2018-07-12T13:32:38.515Z,100325.60
2018-07-12T13:35:06.608Z,100322.96
2018-07-12T13:37:34.901Z,100315.77
2018-07-12T13:40:03.193Z,100315.23
2018-07-12T13:42:31.683Z,100312.75
2018-07-12T13:45:00.137Z,100306.19
2018-07-12T13:47:28.730Z,100307.30
2018-07-12T13:49:58.627Z,100307.63
2018-07-12T13:52:27.101Z,100314.13
2018-07-12T13:54:55.493Z,100315.75
2018-07-12T13:57:24.093Z,100310.09
2018-07-12T13:59:53.432Z,100307.66
2018-07-12T14:02:22.119Z,100302.00
2018-07-12T14:04:50.653Z,100307.83
2018-07-12T14:07:18.973Z,100312.82
2018-07-12T14:09:47.226Z,100319.05
2018-07-12T14:12:15.452Z,100314.78
2018-07-12T14:14:43.584Z,100311.41
2018-07-12T14:17:12.566Z,100315.64
2018-07-12T14:19:41.030Z,100312.35
2018-07-12T14:22:09.323Z,100314.38
2018-07-12T14:24:37.561Z,100310.04
2018-07-12T14:27:05.879Z,100310.12
2018-07-12T14:29:34.005Z,100312.50
2018-07-12T14:32:03.375Z,100316.14
2018-07-12T14:34:32.002Z,100308.98
2018-07-12T14:37:00.603Z,100309.30
2018-07-12T14:39:28.802Z,100303.58
2018-07-12T14:41:56.967Z,100298.34
2018-07-12T14:44:25.570Z,100292.88
2018-07-12T14:46:53.770Z,100288.08
2018-07-12T14:49:22.202Z,100287.68
2018-07-12T14:51:50.384Z,100287.78
2018-07-12T14:54:18.462Z,100286.48
2018-07-12T14:56:46.644Z,100288.39
2018-07-12T14:59:14.791Z,100276.81
2018-07-12T15:01:43.081Z,100275.22
2018-07-12T15:04:11.336Z,100287.38
2018-07-12T15:06:39.859Z,100287.20
2018-07-12T15:09:08.795Z,100283.05
2018-07-12T15:11:37.612Z,100279.61
2018-07-12T15:14:05.991Z,100277.13
2018-07-12T15:16:34.201Z,100277.27
2018-07-12T15:19:02.652Z,100268.98
2018-07-12T15:21:31.976Z,100270.25
2018-07-12T15:24:00.446Z,100270.72
2018-07-12T15:26:28.646Z,100277.63
2018-07-12T15:28:56.755Z,100264.49
2018-07-12T15:31:25.352Z,100265.56
2018-07-12T15:33:54.484Z,100261.67
2018-07-12T15:36:22.712Z,100264.63
2018-07-12T15:38:50.870Z,100255.05
2018-07-12T15:41:18.975Z,100253.87
2018-07-12T15:43:47.095Z,100248.47
2018-07-12T15:46:15.215Z,100246.81
2018-07-12T15:48:43.371Z,100246.67
2018-07-12T15:51:12.115Z,100251.70
2018-07-12T15:53:40.389Z,100244.20
2018-07-12T15:56:08.598Z,100246.76
2018-07-12T15:58:37.175Z,100248.98
2018-07-12T16:01:05.759Z,100241.88
2018-07-12T16:03:34.241Z,100247.16
2018-07-12T16:06:02.455Z,100244.45
2018-07-12T16:08:30.857Z,100243.94
2018-07-12T16:10:58.992Z,100245.97
2018-07-12T16:13:27.215Z,100253.39
2018-07-12T16:15:55.645Z,100255.98
2018-07-12T16:18:24.054Z,100249.34
2018-07-12T16:20:52.516Z,100251.53
2018-07-12T16:23:20.601Z,100249.02
2018-07-12T16:25:49.274Z,100244.67
2018-07-12T16:28:18.094Z,100243.55
2018-07-12T16:30:46.603Z,100244.94
2018-07-12T16:33:14.912Z,100247.83
2018-07-12T16:35:43.107Z,100248.27
2018-07-12T16:38:11.279Z,100251.31
2018-07-12T16:40:39.424Z,100247.91
2018-07-12T16:43:07.591Z,100261.29
2018-07-12T16:45:36.876Z,100260.00
2018-07-12T16:48:05.146Z,100254.29
2018-07-12T16:50:33.340Z,100250.25
2018-07-12T16:53:01.499Z,100256.02
2018-07-12T16:55:30.590Z,100260.28
2018-07-12T16:57:58.690Z,100252.98
2018-07-12T17:00:26.857Z,100256.77
2018-07-12T17:02:55.065Z,100256.85
2018-07-12T17:05:23.216Z,100262.85
2018-07-12T17:07:51.430Z,100254.89
2018-07-12T17:10:19.562Z,100259.80
2018-07-12T17:12:47.780Z,100253.85
2018-07-12T17:15:15.892Z,100257.18
2018-07-12T17:17:44.207Z,100252.09
2018-07-12T17:20:12.748Z,100256.83
2018-07-12T17:22:40.922Z,100255.83
2018-07-12T17:25:09.024Z,100252.09
2018-07-12T17:27:37.111Z,100258.16
2018-07-12T17:30:05.744Z,100254.45
2018-07-12T17:32:34.258Z,100253.22
2018-07-12T17:35:02.535Z,100252.28
2018-07-12T17:37:31.064Z,100255.17
2018-07-12T17:39:59.186Z,100254.91
2018-07-12T17:42:27.293Z,100256.80
2018-07-12T17:44:55.448Z,100256.42
2018-07-12T17:47:23.769Z,100258.64
2018-07-12T17:49:51.813Z,100261.55
2018-07-12T17:52:20.142Z,100265.92
2018-07-12T17:54:48.303Z,100260.42
2018-07-12T17:57:16.424Z,100250.47
2018-07-12T17:59:44.567Z,100260.63
2018-07-12T18:02:12.791Z,100264.64
2018-07-12T18:04:40.964Z,100267.97
2018-07-12T18:07:09.082Z,100264.70
2018-07-12T18:09:37.200Z,100264.81
2018-07-12T18:12:05.499Z,100269.25
2018-07-12T18:14:33.887Z,100272.38
2018-07-12T18:17:01.977Z,100265.71
2018-07-12T18:19:30.831Z,100259.77
2018-07-12T18:21:59.274Z,100263.66
2018-07-12T18:24:28.142Z,100262.36
2018-07-12T18:26:56.322Z,100264.05
2018-07-12T18:29:24.641Z,100269.07
2018-07-12T18:31:52.826Z,100270.69
2018-07-12T18:34:22.119Z,100273.25
2018-07-12T18:36:50.257Z,100271.98
2018-07-12T18:39:18.657Z,100277.36
2018-07-12T18:41:46.930Z,100280.48
2018-07-12T18:44:15.136Z,100283.88
2018-07-12T18:46:43.358Z,100280.05
2018-07-12T18:49:12.090Z,100286.88
2018-07-12T18:51:40.470Z,100285.13
2018-07-12T18:54:08.791Z,100290.84
2018-07-12T18:56:36.904Z,100294.08
2018-07-12T18:59:05.267Z,100294.37
2018-07-12T19:01:33.700Z,100292.97
2018-07-12T19:04:01.839Z,100292.11
2018-07-12T19:06:30.983Z,100292.84
2018-07-12T19:08:59.346Z,100300.96
2018-07-12T19:11:27.399Z,100303.88
2018-07-12T19:13:55.761Z,100301.95
2018-07-12T19:16:23.943Z,100306.50
2018-07-12T19:18:55.050Z,100307.39
2018-07-12T19:21:23.284Z,100307.82
2018-07-12T19:23:51.375Z,100309.67
2018-07-12T19:26:19.509Z,100307.19
2018-07-12T19:28:47.619Z,100314.61
2018-07-12T19:31:15.788Z,100313.34
2018-07-12T19:33:43.930Z,100320.55
2018-07-12T19:36:12.037Z,100320.69
2018-07-12T19:38:40.159Z,100331.94
2018-07-12T19:41:08.532Z,100357.53
2018-07-12T19:43:37.251Z,100376.79
2018-07-12T19:46:05.344Z,100369.84
2018-07-12T19:48:33.469Z,100375.14
2018-07-12T19:51:01.933Z,100384.62
2018-07-12T19:53:30.458Z,100389.84
2018-07-12T19:55:58.612Z,100395.28
2018-07-12T19:58:26.677Z,100401.77
2018-07-12T20:00:54.797Z,100401.72
2018-07-12T20:03:23.921Z,100395.06
2018-07-12T20:05:51.971Z,100401.59
2018-07-12T20:08:20.064Z,100397.63
2018-07-12T20:10:48.621Z,100397.28
2018-07-12T20:13:43.073Z,100403.34
2018-07-12T20:16:13.608Z,100395.97
2018-07-12T20:18:41.748Z,100399.57
2018-07-12T20:21:09.944Z,100401.64
2018-07-12T20:23:48.048Z,100403.10
2018-07-12T20:26:16.395Z,100409.56
2018-07-12T20:28:44.904Z,100410.37
2018-07-12T20:31:13.253Z,100407.81
2018-07-12T20:33:41.318Z,100408.27
2018-07-12T20:36:09.444Z,100407.48
2018-07-12T20:38:37.567Z,100407.41
2018-07-12T20:41:06.000Z,100412.98
2018-07-12T20:43:34.167Z,100409.97
2018-07-12T20:46:02.327Z,100408.67
2018-07-12T20:48:31.439Z,100405.63
2018-07-12T20:50:59.788Z,100413.02
2018-07-12T20:53:28.036Z,100414.77
2018-07-12T20:55:56.279Z,100412.67
2018-07-12T20:58:24.533Z,100420.54
2018-07-12T21:00:52.679Z,100420.94
2018-07-12T21:03:20.844Z,100414.84
2018-07-12T21:05:48.979Z,100417.43
2018-07-12T21:08:17.393Z,100421.77
2018-07-12T21:10:45.628Z,100420.47
2018-07-12T21:13:15.016Z,100423.07
2018-07-12T21:15:43.199Z,100427.44
2018-07-12T21:18:11.368Z,100427.01
2018-07-12T21:20:39.562Z,100420.09
2018-07-12T21:23:07.872Z,100427.42
2018-07-12T21:25:37.031Z,100427.86
2018-07-12T21:28:05.283Z,100423.08
2018-07-12T21:30:33.667Z,100419.16
2018-07-12T21:33:01.840Z,100426.13
2018-07-12T21:35:29.969Z,100426.61
2018-07-12T21:37:58.137Z,100426.14
2018-07-12T21:40:26.246Z,100424.88
2018-07-12T21:42:54.448Z,100422.71
2018-07-12T21:45:22.536Z,100427.89
2018-07-12T21:47:50.700Z,100425.73
2018-07-12T21:50:20.982Z,100432.23
2018-07-12T21:52:49.157Z,100429.59
2018-07-12T21:55:17.287Z,100433.53
2018-07-12T21:57:45.478Z,100433.09
2018-07-12T22:00:14.228Z,100440.88
2018-07-12T22:02:42.468Z,100442.18
2018-07-12T22:05:10.772Z,100439.53
2018-07-12T22:07:50.736Z,100439.59
2018-07-12T22:10:18.941Z,100442.61
2018-07-12T22:12:47.213Z,100440.03
2018-07-12T22:15:15.682Z,100434.82
2018-07-12T22:17:43.838Z,100434.81
2018-07-12T22:20:11.999Z,100431.75
2018-07-12T22:22:40.202Z,100432.14
2018-07-12T22:25:08.359Z,100433.42
2018-07-12T22:27:36.512Z,100433.06
2018-07-12T22:30:06.808Z,100436.13
2018-07-12T22:32:37.294Z,100435.70
2018-07-12T22:35:05.616Z,100431.31
2018-07-12T22:37:33.747Z,100433.95
2018-07-12T22:40:01.872Z,100430.07
2018-07-12T22:42:30.241Z,100431.31
2018-07-12T22:44:58.782Z,100438.27
2018-07-12T22:47:27.038Z,100437.43
2018-07-12T22:49:55.195Z,100436.45
2018-07-12T22:52:23.414Z,100436.51
2018-07-12T22:54:51.967Z,100443.00
2018-07-12T22:57:20.313Z,100442.55
2018-07-12T22:59:48.894Z,100440.37
2018-07-12T23:02:17.187Z,100441.70
2018-07-12T23:04:45.671Z,100445.56
2018-07-12T23:07:13.924Z,100445.14
2018-07-12T23:09:42.050Z,100443.38
2018-07-12T23:12:10.234Z,100446.45
2018-07-12T23:14:40.146Z,100446.44
2018-07-12T23:17:08.293Z,100438.59
2018-07-12T23:19:37.287Z,100440.34
2018-07-12T23:22:05.655Z,100438.08
2018-07-12T23:24:33.872Z,100432.55
2018-07-12T23:27:02.220Z,100431.23
2018-07-12T23:29:31.411Z,100428.48
2018-07-12T23:31:59.536Z,100423.42
2018-07-12T23:34:27.797Z,100423.81
2018-07-12T23:36:55.931Z,100419.92
2018-07-12T23:39:24.105Z,100425.88
2018-07-12T23:41:52.273Z,100421.18
2018-07-12T23:44:20.417Z,100418.22
2018-07-12T23:46:49.787Z,100419.42
2018-07-12T23:49:17.908Z,100415.88
2018-07-12T23:51:46.119Z,100420.94
2018-07-12T23:54:14.243Z,100421.82
2018-07-12T23:56:42.334Z,100415.31
2018-07-12T23:59:10.486Z,100422.23
